createdAt,value
2023-05-02T00:00:53.420Z,99937.47
2023-05-02T00:02:55.233Z,99937.94
2023-05-02T00:04:56.735Z,99931.00
2023-05-02T00:06:58.235Z,99930.22
2023-05-02T00:08:59.794Z,99937.56
2023-05-02T00:11:01.233Z,99932.06
2023-05-02T00:13:02.716Z,99941.00
2023-05-02T00:15:04.978Z,99936.97
2023-05-02T00:17:06.445Z,99936.53
2023-05-02T00:19:08.032Z,99939.38
2023-05-02T00:21:09.991Z,99932.50
2023-05-02T00:23:13.146Z,99928.88
2023-05-02T00:25:16.436Z,99934.59
2023-05-02T00:27:19.170Z,99940.16
2023-05-02T00:29:20.888Z,99941.03
2023-05-02T00:31:22.332Z,99947.75
2023-05-02T00:33:23.777Z,99945.94
2023-05-02T00:35:25.269Z,99948.59
2023-05-02T00:37:28.504Z,99955.69
2023-05-02T00:39:29.957Z,99954.69
2023-05-02T00:41:31.359Z,99958.53
2023-05-02T00:43:32.908Z,99956.06
2023-05-02T00:45:34.467Z,99968.66
2023-05-02T00:47:36.108Z,99969.84
2023-05-02T00:49:37.634Z,99968.81
2023-05-02T00:51:40.190Z,99972.25
2023-05-02T00:53:41.755Z,99968.38
2023-05-02T00:55:43.725Z,99970.00
2023-05-02T00:57:45.155Z,99965.53
2023-05-02T00:59:47.340Z,99966.50
2023-05-02T01:02:06.014Z,99970.16
2023-05-02T01:04:22.757Z,99970.31
2023-05-02T01:06:42.318Z,99975.97
2023-05-02T01:09:10.872Z,99974.59
2023-05-02T01:11:17.357Z,99977.59
2023-05-02T01:13:26.228Z,99975.78
2023-05-02T01:15:28.361Z,99976.78
2023-05-02T01:17:32.899Z,99980.63
2023-05-02T01:19:37.757Z,99979.81
2023-05-02T01:21:40.353Z,99980.03
2023-05-02T01:23:53.468Z,99980.03
2023-05-02T01:25:55.069Z,99985.09
2023-05-02T01:28:14.223Z,99988.13
2023-05-02T01:30:23.588Z,99988.13
2023-05-02T01:32:27.948Z,99988.94
2023-05-02T01:34:32.022Z,99994.66
2023-05-02T01:36:36.163Z,100000.31
2023-05-02T01:38:39.953Z,99999.56
2023-05-02T01:40:45.481Z,99997.88
2023-05-02T01:42:50.270Z,99998.28
2023-05-02T01:44:55.051Z,100003.34
2023-05-02T01:46:58.000Z,99994.59
2023-05-02T01:49:02.605Z,99997.25
2023-05-02T01:51:07.343Z,100002.75
2023-05-02T01:53:11.379Z,100001.72
2023-05-02T01:55:15.255Z,100002.78
2023-05-02T01:57:18.344Z,100011.34
2023-05-02T01:59:22.589Z,100014.38
2023-05-02T02:01:27.507Z,100013.56
2023-05-02T02:03:30.972Z,100020.47
2023-05-02T02:05:34.872Z,100022.09
2023-05-02T02:07:36.533Z,100026.13
2023-05-02T02:09:38.018Z,100031.06
2023-05-02T02:11:47.695Z,100031.31
2023-05-02T02:13:52.926Z,100032.50
2023-05-02T02:15:59.712Z,100034.53
2023-05-02T02:18:02.020Z,100037.16
2023-05-02T02:20:06.769Z,100036.53
2023-05-02T02:22:08.905Z,100038.38
2023-05-02T02:24:11.653Z,100046.16
2023-05-02T02:26:14.340Z,100040.63
2023-05-02T02:28:16.010Z,100047.25
2023-05-02T02:30:17.678Z,100046.25
2023-05-02T02:32:19.137Z,100049.94
2023-05-02T02:34:21.282Z,100050.94
2023-05-02T02:36:49.335Z,100050.47
2023-05-02T02:39:00.784Z,100053.09
2023-05-02T02:41:25.259Z,100050.47
2023-05-02T02:43:32.345Z,100060.91
2023-05-02T02:45:51.432Z,100060.06
2023-05-02T02:48:19.712Z,100068.22
2023-05-02T02:50:38.267Z,100060.66
2023-05-02T02:52:55.562Z,100062.09
2023-05-02T02:55:00.704Z,100065.38
2023-05-02T02:57:09.152Z,100072.31
2023-05-02T02:59:16.789Z,100063.34
2023-05-02T03:01:21.839Z,100069.66
2023-05-02T03:03:28.982Z,100075.38
2023-05-02T03:05:32.848Z,100080.19
2023-05-02T03:07:34.516Z,100076.47
2023-05-02T03:09:45.879Z,100075.00
2023-05-02T03:11:47.299Z,100079.47
2023-05-02T03:13:48.861Z,100091.09
2023-05-02T03:15:53.916Z,100086.38
2023-05-02T03:17:55.492Z,100089.03
2023-05-02T03:19:57.520Z,100092.69
2023-05-02T03:21:59.074Z,100092.53
2023-05-02T03:24:01.393Z,100086.44
2023-05-02T03:26:02.953Z,100097.97
2023-05-02T03:28:04.567Z,100097.59
2023-05-02T03:30:06.714Z,100095.19
2023-05-02T03:32:08.408Z,100102.34
2023-05-02T03:34:09.908Z,100099.03
2023-05-02T03:36:11.369Z,100103.53
2023-05-02T03:38:13.507Z,100098.03
2023-05-02T03:40:15.069Z,100102.88
2023-05-02T03:42:16.491Z,100101.47
2023-05-02T03:44:17.907Z,100101.88
2023-05-02T03:46:19.407Z,100107.34
2023-05-02T03:48:21.040Z,100106.97
2023-05-02T03:50:22.995Z,100114.69
2023-05-02T03:52:24.846Z,100115.75
2023-05-02T03:54:26.417Z,100113.09
2023-05-02T03:56:27.962Z,100116.13
2023-05-02T03:58:29.340Z,100116.56
2023-05-02T04:00:31.895Z,100122.03
2023-05-02T04:02:33.357Z,100123.06
2023-05-02T04:04:35.087Z,100127.09
2023-05-02T04:06:36.654Z,100120.41
2023-05-02T04:08:38.374Z,100126.31
2023-05-02T04:10:39.779Z,100128.78
2023-05-02T04:12:41.150Z,100120.41
2023-05-02T04:14:42.613Z,100122.47
2023-05-02T04:16:50.906Z,100120.84
2023-05-02T04:18:52.389Z,100125.50
2023-05-02T04:20:53.775Z,100121.09
2023-05-02T04:22:55.226Z,100128.38
2023-05-02T04:24:56.710Z,100125.75
2023-05-02T04:26:58.122Z,100135.50
2023-05-02T04:28:59.505Z,100134.47
2023-05-02T04:31:01.072Z,100140.94
2023-05-02T04:33:02.564Z,100146.22
2023-05-02T04:35:04.542Z,100148.88
2023-05-02T04:37:06.319Z,100149.13
2023-05-02T04:39:07.898Z,100155.81
2023-05-02T04:41:09.965Z,100156.69
2023-05-02T04:43:11.451Z,100157.25
2023-05-02T04:45:12.852Z,100158.09
2023-05-02T04:47:14.234Z,100162.75
2023-05-02T04:49:15.614Z,100165.00
2023-05-02T04:51:17.322Z,100172.50
2023-05-02T04:53:18.831Z,100164.56
2023-05-02T04:55:20.377Z,100172.94
2023-05-02T04:57:23.303Z,100168.03
2023-05-02T04:59:24.937Z,100178.00
2023-05-02T05:01:29.027Z,100176.34
2023-05-02T05:03:30.841Z,100183.75
2023-05-02T05:05:32.940Z,100185.75
2023-05-02T05:07:34.403Z,100190.00
2023-05-02T05:09:35.886Z,100189.19
2023-05-02T05:11:38.573Z,100197.72
2023-05-02T05:13:39.973Z,100203.00
2023-05-02T05:15:41.582Z,100204.03
2023-05-02T05:17:43.189Z,100199.75
2023-05-02T05:19:44.597Z,100204.03
2023-05-02T05:21:46.017Z,100213.59
2023-05-02T05:23:47.650Z,100214.81
2023-05-02T05:25:49.177Z,100214.41
2023-05-02T05:27:52.133Z,100219.72
2023-05-02T05:29:53.519Z,100224.97
2023-05-02T05:31:54.985Z,100230.03
2023-05-02T05:33:56.458Z,100229.63
2023-05-02T05:36:03.954Z,100225.38
2023-05-02T05:38:05.346Z,100232.28
2023-05-02T05:40:08.544Z,100235.09
2023-05-02T05:42:09.961Z,100243.44
2023-05-02T05:44:11.473Z,100250.78
2023-05-02T05:46:12.859Z,100237.38
2023-05-02T05:48:14.299Z,100235.16
2023-05-02T05:50:21.643Z,100238.81
2023-05-02T05:52:23.225Z,100248.16
2023-05-02T05:54:25.278Z,100252.41
2023-05-02T05:56:26.997Z,100253.81
2023-05-02T05:58:28.398Z,100256.09
2023-05-02T06:00:30.102Z,100250.81
2023-05-02T06:02:31.631Z,100267.09
2023-05-02T06:04:33.099Z,100268.06
2023-05-02T06:06:34.775Z,100277.63
2023-05-02T06:08:36.336Z,100270.31
2023-05-02T06:10:37.740Z,100273.56
2023-05-02T06:12:39.209Z,100276.63
2023-05-02T06:14:40.927Z,100279.28
2023-05-02T06:16:42.732Z,100279.66
2023-05-02T06:18:44.827Z,100289.03
2023-05-02T06:20:46.204Z,100285.97
2023-05-02T06:22:47.604Z,100293.31
2023-05-02T06:24:48.974Z,100292.91
2023-05-02T06:26:51.710Z,100291.25
2023-05-02T06:28:54.967Z,100290.81
2023-05-02T06:31:05.997Z,100292.59
2023-05-02T06:33:07.574Z,100282.88
2023-05-02T06:35:10.079Z,100289.72
2023-05-02T06:37:11.745Z,100302.00
2023-05-02T06:39:13.186Z,100304.59
2023-05-02T06:41:17.876Z,100310.94
2023-05-02T06:43:19.747Z,100307.69
2023-05-02T06:45:21.131Z,100318.44
2023-05-02T06:47:24.317Z,100328.00
2023-05-02T06:49:26.704Z,100325.34
2023-05-02T06:51:28.165Z,100329.75
2023-05-02T06:53:31.131Z,100336.06
2023-05-02T06:55:34.353Z,100341.97
2023-05-02T06:57:35.831Z,100335.25
2023-05-02T06:59:37.607Z,100343.41
2023-05-02T07:01:39.036Z,100343.97
2023-05-02T07:03:40.700Z,100343.50
2023-05-02T07:05:42.238Z,100344.75
2023-05-02T07:07:44.190Z,100357.13
2023-05-02T07:09:45.631Z,100352.09
2023-05-02T07:11:47.157Z,100357.53
2023-05-02T07:13:48.628Z,100360.81
2023-05-02T07:15:50.176Z,100369.56
2023-05-02T07:17:51.597Z,100368.50
2023-05-02T07:19:53.126Z,100375.81
2023-05-02T07:21:54.499Z,100384.63
2023-05-02T07:23:57.534Z,100374.41
2023-05-02T07:25:58.936Z,100385.59
2023-05-02T07:28:00.341Z,100387.72
2023-05-02T07:30:02.346Z,100386.47
2023-05-02T07:32:04.670Z,100390.06
2023-05-02T07:34:06.264Z,100391.78
2023-05-02T07:36:07.722Z,100393.63
2023-05-02T07:38:09.157Z,100401.47
2023-05-02T07:40:10.662Z,100400.72
2023-05-02T07:42:12.046Z,100397.84
2023-05-02T07:44:13.484Z,100405.00
2023-05-02T07:46:15.124Z,100402.19
2023-05-02T07:48:16.668Z,100405.63
2023-05-02T07:50:18.186Z,100405.19
2023-05-02T07:52:20.735Z,100402.19
2023-05-02T07:54:22.424Z,100416.84
2023-05-02T07:56:24.818Z,100424.63
2023-05-02T07:58:26.343Z,100414.84
2023-05-02T08:00:27.934Z,100420.97
2023-05-02T08:02:29.810Z,100427.25
2023-05-02T08:04:31.317Z,100428.28
2023-05-02T08:06:33.256Z,100431.97
2023-05-02T08:08:37.551Z,100436.03
2023-05-02T08:10:38.976Z,100455.53
2023-05-02T08:12:41.733Z,100447.97
2023-05-02T08:14:43.190Z,100458.91
2023-05-02T08:16:46.182Z,100457.66
2023-05-02T08:18:48.239Z,100464.94
2023-05-02T08:20:50.715Z,100467.75
2023-05-02T08:22:52.151Z,100479.94
2023-05-02T08:24:53.570Z,100483.09
2023-05-02T08:26:54.980Z,100487.97
2023-05-02T08:28:56.413Z,100490.22
2023-05-02T08:30:57.865Z,100492.19
2023-05-02T08:32:59.318Z,100488.03
2023-05-02T08:35:00.873Z,100497.75
2023-05-02T08:37:02.417Z,100508.75
2023-05-02T08:39:04.891Z,100502.28
2023-05-02T08:41:14.288Z,100504.94
2023-05-02T08:43:16.907Z,100511.47
2023-05-02T08:45:19.979Z,100517.47
2023-05-02T08:47:22.350Z,100522.16
2023-05-02T08:49:25.610Z,100524.00
2023-05-02T08:51:29.004Z,100527.91
2023-05-02T08:53:34.293Z,100528.94
2023-05-02T08:55:39.944Z,100532.19
2023-05-02T08:57:43.655Z,100529.13
2023-05-02T08:59:45.221Z,100540.28
2023-05-02T09:01:50.129Z,100539.72
2023-05-02T09:03:52.333Z,100541.53
2023-05-02T09:06:02.781Z,100538.81
2023-05-02T09:08:04.310Z,100549.56
2023-05-02T09:10:07.734Z,100548.00
2023-05-02T09:12:09.145Z,100552.31
2023-05-02T09:14:17.521Z,100556.69
2023-05-02T09:16:25.330Z,100559.44
2023-05-02T09:18:32.318Z,100568.16
2023-05-02T09:20:40.039Z,100562.50
2023-05-02T09:22:52.836Z,100569.78
2023-05-02T09:24:55.474Z,100565.19
2023-05-02T09:27:04.940Z,100569.78
2023-05-02T09:29:06.635Z,100570.44
2023-05-02T09:31:12.624Z,100570.22
2023-05-02T09:33:26.883Z,100570.72
2023-05-02T09:35:28.376Z,100575.13
2023-05-02T09:37:35.830Z,100573.75
2023-05-02T09:39:37.401Z,100577.09
2023-05-02T09:41:42.876Z,100585.72
2023-05-02T09:43:44.521Z,100588.81
2023-05-02T09:46:03.586Z,100583.75
2023-05-02T09:48:05.326Z,100593.31
2023-05-02T09:50:09.188Z,100602.94
2023-05-02T09:52:12.906Z,100616.81
2023-05-02T09:54:15.271Z,100605.25
2023-05-02T09:56:17.518Z,100620.25
2023-05-02T09:58:23.660Z,100611.84
2023-05-02T10:00:44.666Z,100613.31
2023-05-02T10:02:50.275Z,100624.47
2023-05-02T10:04:53.692Z,100624.50
2023-05-02T10:06:55.592Z,100628.28
2023-05-02T10:08:57.517Z,100624.81
2023-05-02T10:11:00.011Z,100625.72
2023-05-02T10:13:03.167Z,100625.91
2023-05-02T10:15:05.874Z,100638.44
2023-05-02T10:17:19.309Z,100637.78
2023-05-02T10:19:27.086Z,100643.91
2023-05-02T10:21:28.682Z,100640.63
2023-05-02T10:23:30.420Z,100642.81
2023-05-02T10:25:33.210Z,100642.38
2023-05-02T10:27:34.666Z,100643.38
2023-05-02T10:29:37.147Z,100642.19
2023-05-02T10:31:41.927Z,100644.19
2023-05-02T10:33:46.799Z,100643.09
2023-05-02T10:35:48.449Z,100643.63
2023-05-02T10:37:50.645Z,100644.91
2023-05-02T10:39:52.224Z,100643.31
2023-05-02T10:41:56.375Z,100649.00
2023-05-02T10:43:58.712Z,100642.97
2023-05-02T10:46:00.244Z,100649.91
2023-05-02T10:48:27.510Z,100644.41
2023-05-02T10:50:43.520Z,100648.00
2023-05-02T10:52:45.132Z,100648.22
2023-05-02T10:54:46.621Z,100646.03
2023-05-02T10:57:03.477Z,100646.22
2023-05-02T10:59:27.619Z,100645.00
2023-05-02T11:01:29.293Z,100655.41
2023-05-02T11:03:57.361Z,100649.38
2023-05-02T11:06:09.551Z,100656.72
2023-05-02T11:08:22.099Z,100648.22
2023-05-02T11:10:26.362Z,100652.47
2023-05-02T11:12:48.996Z,100645.56
2023-05-02T11:14:50.699Z,100646.53
2023-05-02T11:16:58.792Z,100647.38
2023-05-02T11:19:01.411Z,100644.31
2023-05-02T11:21:28.612Z,100649.16
2023-05-02T11:23:30.374Z,100646.66
2023-05-02T11:25:39.153Z,100653.19
2023-05-02T11:27:43.355Z,100657.22
2023-05-02T11:29:52.438Z,100661.28
2023-05-02T11:31:54.804Z,100656.41
2023-05-02T11:34:05.078Z,100673.19
2023-05-02T11:36:06.637Z,100664.97
2023-05-02T11:38:13.126Z,100662.78
2023-05-02T11:40:15.240Z,100661.59
2023-05-02T11:42:30.537Z,100673.38
2023-05-02T11:44:31.976Z,100661.84
2023-05-02T11:46:36.464Z,100665.72
2023-05-02T11:48:38.350Z,100664.91
2023-05-02T11:50:51.409Z,100674.66
2023-05-02T11:52:52.893Z,100677.19
2023-05-02T11:54:58.159Z,100676.19
2023-05-02T11:57:01.828Z,100675.66
2023-05-02T11:59:03.981Z,100670.03
2023-05-02T12:01:16.071Z,100676.38
2023-05-02T12:03:32.123Z,100678.78
2023-05-02T12:05:33.985Z,100675.19
2023-05-02T12:07:35.889Z,100673.75
2023-05-02T12:09:50.444Z,100677.19
2023-05-02T12:11:53.461Z,100680.63
2023-05-02T12:13:54.933Z,100682.91
2023-05-02T12:15:57.146Z,100682.63
2023-05-02T12:17:59.157Z,100679.28
2023-05-02T12:20:03.504Z,100686.34
2023-05-02T12:22:05.815Z,100687.41
2023-05-02T12:24:07.333Z,100685.81
2023-05-02T12:26:25.105Z,100695.50
2023-05-02T12:28:26.789Z,100693.91
2023-05-02T12:30:29.533Z,100690.72
2023-05-02T12:32:33.341Z,100688.06
2023-05-02T12:34:36.564Z,100686.91
2023-05-02T12:36:44.261Z,100688.66
2023-05-02T12:38:53.750Z,100687.72
2023-05-02T12:40:58.704Z,100690.06
2023-05-02T12:43:03.861Z,100696.31
2023-05-02T12:45:16.237Z,100694.19
2023-05-02T12:47:19.472Z,100697.28
2023-05-02T12:49:20.927Z,100701.94
2023-05-02T12:51:26.867Z,100697.91
2023-05-02T12:53:40.152Z,100701.03
2023-05-02T12:55:41.616Z,100699.72
2023-05-02T12:57:43.457Z,100701.94
2023-05-02T12:59:44.910Z,100699.97
2023-05-02T13:01:46.342Z,100711.38
2023-05-02T13:03:50.987Z,100707.69
2023-05-02T13:05:55.582Z,100710.41
2023-05-02T13:07:58.471Z,100714.75
2023-05-02T13:10:00.108Z,100714.69
2023-05-02T13:12:03.462Z,100715.72
2023-05-02T13:14:05.937Z,100709.03
2023-05-02T13:16:08.117Z,100708.16
2023-05-02T13:18:09.792Z,100714.75
2023-05-02T13:20:12.096Z,100715.28
2023-05-02T13:22:13.517Z,100723.84
2023-05-02T13:24:17.340Z,100719.88
2023-05-02T13:26:18.856Z,100726.81
2023-05-02T13:28:20.378Z,100723.00
2023-05-02T13:30:21.793Z,100725.41
2023-05-02T13:32:23.227Z,100721.47
2023-05-02T13:34:24.731Z,100722.09
2023-05-02T13:36:26.277Z,100723.94
2023-05-02T13:38:27.701Z,100728.16
2023-05-02T13:40:29.234Z,100729.56
2023-05-02T13:42:30.721Z,100726.19
2023-05-02T13:44:32.516Z,100725.31
2023-05-02T13:46:36.631Z,100725.59
2023-05-02T13:48:38.483Z,100723.06
2023-05-02T13:50:39.892Z,100721.69
2023-05-02T13:52:41.579Z,100735.19
2023-05-02T13:54:43.027Z,100735.38
2023-05-02T13:56:44.454Z,100741.63
2023-05-02T13:58:45.824Z,100729.41
2023-05-02T14:00:47.331Z,100737.69
2023-05-02T14:02:48.822Z,100732.47
2023-05-02T14:04:50.443Z,100747.00
2023-05-02T14:06:51.906Z,100730.25
2023-05-02T14:08:53.380Z,100732.97
2023-05-02T14:10:54.804Z,100717.25
2023-05-02T14:12:56.262Z,100721.31
2023-05-02T14:14:57.702Z,100722.03
2023-05-02T14:16:59.797Z,100716.66
2023-05-02T14:19:01.201Z,100721.34
2023-05-02T14:21:04.014Z,100726.44
2023-05-02T14:23:07.440Z,100723.34
2023-05-02T14:25:09.288Z,100731.44
2023-05-02T14:27:18.089Z,100716.34
2023-05-02T14:29:22.777Z,100716.84
2023-05-02T14:31:24.418Z,100714.38
2023-05-02T14:33:26.721Z,100718.56
2023-05-02T14:35:28.244Z,100716.75
2023-05-02T14:37:29.736Z,100712.47
2023-05-02T14:39:31.153Z,100718.22
2023-05-02T14:41:32.582Z,100719.50
2023-05-02T14:43:33.976Z,100716.75
2023-05-02T14:45:35.463Z,100720.78
2023-05-02T14:47:36.910Z,100731.78
2023-05-02T14:49:38.347Z,100734.00
2023-05-02T14:51:40.186Z,100733.50
2023-05-02T14:53:41.619Z,100720.22
2023-05-02T14:55:43.245Z,100736.63
2023-05-02T14:57:44.680Z,100732.75
2023-05-02T14:59:46.138Z,100743.97
2023-05-02T15:01:47.657Z,100745.03
2023-05-02T15:04:05.279Z,100741.94
2023-05-02T15:06:08.876Z,100738.66
2023-05-02T15:08:10.504Z,100734.53
2023-05-02T15:10:11.928Z,100741.50
2023-05-02T15:12:13.341Z,100734.56
2023-05-02T15:14:14.745Z,100723.56
2023-05-02T15:16:16.445Z,100725.94
2023-05-02T15:18:17.920Z,100726.44
2023-05-02T15:20:19.704Z,100737.22
2023-05-02T15:22:22.245Z,100740.53
2023-05-02T15:24:26.961Z,100739.34
2023-05-02T15:26:28.726Z,100736.44
2023-05-02T15:28:31.006Z,100731.28
2023-05-02T15:30:32.452Z,100732.81
2023-05-02T15:32:34.026Z,100736.88
2023-05-02T15:34:35.494Z,100739.81
2023-05-02T15:36:37.462Z,100745.22
2023-05-02T15:38:42.812Z,100738.06
2023-05-02T15:40:44.231Z,100746.22
2023-05-02T15:42:45.849Z,100755.09
2023-05-02T15:44:47.229Z,100752.84
2023-05-02T15:46:49.365Z,100748.50
2023-05-02T15:48:51.092Z,100754.47
2023-05-02T15:50:52.656Z,100745.75
2023-05-02T15:52:54.032Z,100751.22
2023-05-02T15:54:56.061Z,100756.25
2023-05-02T15:56:57.527Z,100747.22
2023-05-02T15:58:58.943Z,100754.25
2023-05-02T16:01:00.347Z,100759.63
2023-05-02T16:03:03.805Z,100762.19
2023-05-02T16:05:06.011Z,100759.34
2023-05-02T16:07:07.492Z,100769.22
2023-05-02T16:09:10.041Z,100776.22
2023-05-02T16:11:11.486Z,100768.34
2023-05-02T16:13:12.973Z,100765.53
2023-05-02T16:15:14.474Z,100758.59
2023-05-02T16:17:16.082Z,100762.63
2023-05-02T16:19:17.642Z,100770.06
2023-05-02T16:21:19.082Z,100772.69
2023-05-02T16:23:21.500Z,100766.97
2023-05-02T16:25:22.962Z,100768.47
2023-05-02T16:27:24.842Z,100771.44
2023-05-02T16:29:26.297Z,100761.03
2023-05-02T16:31:28.126Z,100773.06
2023-05-02T16:33:29.815Z,100770.69
2023-05-02T16:35:31.214Z,100774.34
2023-05-02T16:37:34.789Z,100764.59
2023-05-02T16:39:36.222Z,100766.31
2023-05-02T16:41:37.652Z,100766.03
2023-05-02T16:43:39.294Z,100765.19
2023-05-02T16:45:40.809Z,100775.81
2023-05-02T16:47:43.027Z,100778.03
2023-05-02T16:49:45.720Z,100769.19
2023-05-02T16:51:51.262Z,100771.66
2023-05-02T16:53:52.658Z,100770.34
2023-05-02T16:55:54.639Z,100776.59
2023-05-02T16:57:56.418Z,100770.13
2023-05-02T16:59:58.062Z,100767.06
2023-05-02T17:01:59.485Z,100768.03
2023-05-02T17:04:01.038Z,100766.75
2023-05-02T17:06:02.827Z,100771.13
2023-05-02T17:08:04.416Z,100779.41
2023-05-02T17:10:07.397Z,100779.47
2023-05-02T17:12:12.499Z,100778.16
2023-05-02T17:14:14.250Z,100779.69
2023-05-02T17:16:17.912Z,100775.69
2023-05-02T17:18:19.480Z,100786.44
2023-05-02T17:20:21.516Z,100773.97
2023-05-02T17:22:23.312Z,100773.13
2023-05-02T17:24:25.055Z,100776.28
2023-05-02T17:26:26.493Z,100771.69
2023-05-02T17:28:28.963Z,100763.38
2023-05-02T17:30:30.529Z,100769.88
2023-05-02T17:32:33.647Z,100760.09
2023-05-02T17:34:36.591Z,100768.53
2023-05-02T17:36:41.744Z,100767.38
2023-05-02T17:38:43.812Z,100770.91
2023-05-02T17:40:45.484Z,100768.66
2023-05-02T17:42:47.224Z,100764.22
2023-05-02T17:44:48.697Z,100773.75
2023-05-02T17:46:50.126Z,100764.63
2023-05-02T17:48:51.956Z,100766.66
2023-05-02T17:50:55.387Z,100772.44
2023-05-02T17:52:57.489Z,100764.72
2023-05-02T17:54:59.018Z,100769.09
2023-05-02T17:57:00.421Z,100770.13
2023-05-02T17:59:01.780Z,100778.00
2023-05-02T18:01:08.029Z,100780.44
2023-05-02T18:03:09.624Z,100783.19
2023-05-02T18:05:11.037Z,100778.66
2023-05-02T18:07:12.411Z,100780.03
2023-05-02T18:09:13.790Z,100787.19
2023-05-02T18:11:19.739Z,100785.47
2023-05-02T18:13:21.176Z,100791.53
2023-05-02T18:15:22.753Z,100782.41
2023-05-02T18:17:24.506Z,100784.59
2023-05-02T18:19:25.987Z,100783.25
2023-05-02T18:21:28.155Z,100790.41
2023-05-02T18:23:29.623Z,100790.88
2023-05-02T18:25:33.954Z,100786.84
2023-05-02T18:27:35.407Z,100793.84
2023-05-02T18:29:36.948Z,100799.78
2023-05-02T18:31:40.287Z,100797.00
2023-05-02T18:33:42.064Z,100803.56
2023-05-02T18:35:48.215Z,100801.75
2023-05-02T18:37:49.607Z,100797.25
2023-05-02T18:39:51.286Z,100801.69
2023-05-02T18:41:52.643Z,100803.56
2023-05-02T18:43:54.563Z,100795.78
2023-05-02T18:45:55.980Z,100801.47
2023-05-02T18:47:57.821Z,100802.19
2023-05-02T18:49:59.823Z,100795.63
2023-05-02T18:52:01.327Z,100799.94
2023-05-02T18:54:02.742Z,100809.84
2023-05-02T18:56:11.829Z,100818.41
2023-05-02T18:58:13.191Z,100809.16
2023-05-02T19:00:15.206Z,100821.25
2023-05-02T19:02:16.663Z,100819.78
2023-05-02T19:04:18.477Z,100818.50
2023-05-02T19:06:20.284Z,100827.78
2023-05-02T19:08:22.617Z,100823.00
2023-05-02T19:10:25.026Z,100829.06
2023-05-02T19:12:26.565Z,100821.19
2023-05-02T19:14:28.021Z,100832.41
2023-05-02T19:16:29.628Z,100837.84
2023-05-02T19:18:31.251Z,100839.81
2023-05-02T19:20:32.674Z,100844.41
2023-05-02T19:22:34.658Z,100852.69
2023-05-02T19:24:36.226Z,100846.47
2023-05-02T19:26:37.644Z,100852.41
2023-05-02T19:28:39.405Z,100851.06
2023-05-02T19:30:42.443Z,100848.88
2023-05-02T19:32:43.886Z,100852.19
2023-05-02T19:34:45.393Z,100850.91
2023-05-02T19:36:46.909Z,100850.25
2023-05-02T19:38:53.932Z,100853.09
2023-05-02T19:40:55.671Z,100853.28
2023-05-02T19:42:57.086Z,100849.03
2023-05-02T19:44:58.474Z,100857.28
2023-05-02T19:46:59.960Z,100859.72
2023-05-02T19:49:01.337Z,100864.00
2023-05-02T19:51:04.187Z,100865.81
2023-05-02T19:53:05.698Z,100876.44
2023-05-02T19:55:10.348Z,100876.00
2023-05-02T19:57:11.779Z,100875.66
2023-05-02T19:59:13.154Z,100884.28
2023-05-02T20:01:14.851Z,100876.72
2023-05-02T20:03:16.712Z,100885.38
2023-05-02T20:05:18.352Z,100891.16
2023-05-02T20:07:19.857Z,100887.22
2023-05-02T20:09:21.294Z,100888.22
2023-05-02T20:11:22.769Z,100888.56
2023-05-02T20:13:24.288Z,100883.56
2023-05-02T20:15:25.740Z,100884.09
2023-05-02T20:17:27.195Z,100880.97
2023-05-02T20:19:29.334Z,100883.19
2023-05-02T20:21:31.350Z,100886.22
2023-05-02T20:23:32.764Z,100889.69
2023-05-02T20:25:34.187Z,100894.44
2023-05-02T20:27:35.660Z,100898.41
2023-05-02T20:29:37.099Z,100901.28
2023-05-02T20:31:39.996Z,100899.31
2023-05-02T20:33:45.850Z,100898.78
2023-05-02T20:35:54.908Z,100901.78
2023-05-02T20:37:56.451Z,100897.69
2023-05-02T20:39:58.061Z,100893.44
2023-05-02T20:41:59.501Z,100905.78
2023-05-02T20:44:02.637Z,100902.00
2023-05-02T20:46:11.874Z,100902.53
2023-05-02T20:48:19.196Z,100906.47
2023-05-02T20:50:20.705Z,100907.50
2023-05-02T20:52:22.974Z,100914.06
2023-05-02T20:54:24.442Z,100917.53
2023-05-02T20:56:26.185Z,100916.75
2023-05-02T20:58:27.619Z,100903.91
2023-05-02T21:00:29.055Z,100905.56
2023-05-02T21:02:30.660Z,100914.28
2023-05-02T21:04:32.178Z,100909.84
2023-05-02T21:06:33.761Z,100915.47
2023-05-02T21:08:35.493Z,100920.59
2023-05-02T21:10:36.923Z,100920.94
2023-05-02T21:12:38.619Z,100920.25
2023-05-02T21:14:40.334Z,100912.56
2023-05-02T21:16:41.730Z,100920.28
2023-05-02T21:18:43.396Z,100916.19
2023-05-02T21:20:48.095Z,100924.75
2023-05-02T21:22:49.762Z,100920.63
2023-05-02T21:24:51.263Z,100927.25
2023-05-02T21:26:52.750Z,100927.06
2023-05-02T21:28:54.156Z,100922.16
2023-05-02T21:30:55.934Z,100924.28
2023-05-02T21:32:57.404Z,100927.59
2023-05-02T21:34:58.936Z,100922.66
2023-05-02T21:37:00.950Z,100921.19
2023-05-02T21:39:02.469Z,100923.50
2023-05-02T21:41:05.200Z,100926.28
2023-05-02T21:43:06.668Z,100917.75
2023-05-02T21:45:08.655Z,100923.50
2023-05-02T21:47:10.184Z,100922.50
2023-05-02T21:49:11.701Z,100919.56
2023-05-02T21:51:14.125Z,100922.34
2023-05-02T21:53:15.785Z,100928.56
2023-05-02T21:55:17.317Z,100927.25
2023-05-02T21:57:21.399Z,100929.38
2023-05-02T21:59:22.784Z,100923.66
2023-05-02T22:01:24.451Z,100928.41
2023-05-02T22:03:27.201Z,100932.03
2023-05-02T22:05:28.630Z,100927.22
2023-05-02T22:07:30.317Z,100935.09
2023-05-02T22:09:33.533Z,100923.28
2023-05-02T22:11:35.210Z,100935.91
2023-05-02T22:13:36.924Z,100937.06
2023-05-02T22:15:42.825Z,100939.69
2023-05-02T22:17:46.140Z,100938.69
2023-05-02T22:19:53.854Z,100944.91
2023-05-02T22:21:56.899Z,100935.56
2023-05-02T22:23:58.997Z,100936.88
2023-05-02T22:26:00.459Z,100923.75
2023-05-02T22:28:06.856Z,100927.50
2023-05-02T22:30:09.889Z,100933.06
2023-05-02T22:32:11.559Z,100939.78
2023-05-02T22:34:13.053Z,100936.66
2023-05-02T22:36:14.430Z,100944.63
2023-05-02T22:38:19.253Z,100943.47
2023-05-02T22:40:21.187Z,100950.69
2023-05-02T22:42:23.582Z,100947.25
2023-05-02T22:44:25.029Z,100950.69
2023-05-02T22:46:26.765Z,100948.53
2023-05-02T22:48:29.153Z,100949.19
2023-05-02T22:50:30.606Z,100947.56
2023-05-02T22:52:37.674Z,100952.31
2023-05-02T22:54:39.172Z,100943.25
2023-05-02T22:56:43.733Z,100950.31
2023-05-02T22:58:45.172Z,100947.84
2023-05-02T23:00:46.614Z,100945.53
2023-05-02T23:02:48.133Z,100946.19
2023-05-02T23:04:50.782Z,100945.00
2023-05-02T23:06:52.373Z,100940.59
2023-05-02T23:08:53.980Z,100937.31
2023-05-02T23:10:55.924Z,100934.34
2023-05-02T23:12:57.285Z,100937.97
2023-05-02T23:14:58.689Z,100936.97
2023-05-02T23:17:02.074Z,100939.91
2023-05-02T23:19:03.486Z,100940.69
2023-05-02T23:21:05.222Z,100936.41
2023-05-02T23:23:06.610Z,100934.78
2023-05-02T23:25:09.224Z,100937.84
2023-05-02T23:27:10.764Z,100933.06
2023-05-02T23:29:12.359Z,100936.38